Time;durP1;ratioP1;P1;durP2;ratioP2;P2;SDS_P1;SDS_P2;PMS_P1;PMS_P2;Temp;Humidity;BMP_temperature;BMP_pressure;BME280_temperature;BME280_humidity;BME280_pressure;Samples;Min_cycle;Max_cycle;Signal;HPM_P1;HPM_P2
2024/02/15 00:01:42;;;;;;;15.45;13.88;;;;;;;13.85;90.57;99848.66;5035056;28;20049;-86
2024/02/15 00:04:10;;;;;;;15.02;13.43;;;;;;;13.85;90.55;99843.38;5052506;28;20460;-86
2024/02/15 00:06:37;;;;;;;16.40;14.43;;;;;;;13.85;90.77;99853.97;5052216;28;20045;-86
2024/02/15 00:09:04;;;;;;;18.15;13.63;;;;;;;13.87;90.52;99853.84;5034765;28;20106;-87
2024/02/15 00:11:32;;;;;;;16.55;13.38;;;;;;;13.87;90.48;99859.97;5052795;28;20132;-86
2024/02/15 00:14:00;;;;;;;17.88;14.20;;;;;;;13.86;90.64;99860.09;5035144;28;20106;-86
2024/02/15 00:16:27;;;;;;;17.63;13.45;;;;;;;13.86;90.60;99855.66;5034366;28;20053;-85
2024/02/15 00:18:55;;;;;;;18.95;13.95;;;;;;;13.86;90.68;99845.06;5034796;28;20052;-84
2024/02/15 00:21:22;;;;;;;16.58;14.88;;;;;;;13.86;90.64;99839.78;5052471;28;20052;-86
2024/02/15 00:23:49;;;;;;;17.05;14.25;;;;;;;13.84;90.70;99846.97;5050988;28;20057;-85
2024/02/15 00:26:16;;;;;;;15.60;13.77;;;;;;;13.85;90.70;99846.03;5052006;28;20474;-85
2024/02/15 00:28:43;;;;;;;15.77;13.45;;;;;;;13.87;90.63;99851.22;5052474;28;20335;-86
2024/02/15 00:31:09;;;;;;;15.25;13.18;;;;;;;13.87;90.45;99851.22;5052096;28;20576;-85
2024/02/15 00:33:36;;;;;;;15.70;13.75;;;;;;;13.87;90.58;99846.75;5052352;28;20048;-86
2024/02/15 00:36:04;;;;;;;15.95;13.57;;;;;;;13.86;90.18;99860.09;5034350;28;20524;-86
2024/02/15 00:38:35;;;;;;;15.50;13.00;;;;;;;13.85;89.79;99843.38;5052202;28;20049;-86
2024/02/15 00:41:02;;;;;;;18.42;13.57;;;;;;;13.86;90.00;99855.66;5052172;28;20052;-86
2024/02/15 00:43:29;;;;;;;13.38;11.98;;;;;;;13.87;90.42;99848.56;5160642;23;20028;-75
2024/02/15 00:45:56;;;;;;;15.40;12.32;;;;;;;13.87;90.33;99862.63;5051947;28;20084;-81
2024/02/15 00:48:25;;;;;;;14.50;12.30;;;;;;;13.86;90.20;99853.00;5051892;28;20539;-76
2024/02/15 00:50:52;;;;;;;13.30;11.90;;;;;;;13.87;90.33;99851.22;5051942;28;20146;-75
2024/02/15 00:53:19;;;;;;;14.48;12.57;;;;;;;13.87;90.31;99862.63;5052201;28;20048;-74
2024/02/15 00:55:45;;;;;;;13.65;11.73;;;;;;;13.87;90.15;99846.75;5051749;28;20088;-75
2024/02/15 00:58:12;;;;;;;15.68;12.88;;;;;;;13.85;90.09;99846.03;5051535;28;20048;-75
2024/02/15 01:00:38;;;;;;;16.15;12.18;;;;;;;13.87;90.22;99852.03;5051944;28;20088;-79
2024/02/15 01:03:05;;;;;;;13.90;12.50;;;;;;;13.88;90.21;99852.91;5034456;28;20077;-75
2024/02/15 01:05:31;;;;;;;14.13;12.02;;;;;;;13.87;90.05;99853.84;5034049;28;20486;-75
2024/02/15 01:07:58;;;;;;;16.40;11.90;;;;;;;13.85;90.09;99853.09;5051805;28;20080;-76
2024/02/15 01:10:26;;;;;;;14.20;11.55;;;;;;;13.86;90.17;99860.94;5051780;28;20489;-76
2024/02/15 01:12:53;;;;;;;14.60;12.25;;;;;;;13.86;90.12;99857.47;5051567;28;20057;-75
2024/02/15 01:15:20;;;;;;;13.68;11.85;;;;;;;13.85;90.15;99861.03;5051566;28;20057;-74
2024/02/15 01:17:47;;;;;;;15.43;12.30;;;;;;;13.87;90.05;99864.44;5033577;28;20045;-75
2024/02/15 01:20:14;;;;;;;18.90;14.07;;;;;;;13.84;90.08;99860.22;5033881;28;20057;-76
2024/02/15 01:22:40;;;;;;;15.18;12.25;;;;;;;13.85;90.27;99868.97;5051633;28;20076;-75
2024/02/15 01:25:08;;;;;;;13.75;12.00;;;;;;;13.87;90.18;99869.72;5051101;28;20107;-75
2024/02/15 01:27:35;;;;;;;13.90;12.23;;;;;;;13.88;90.28;99874.94;5050902;28;20131;-77
2024/02/15 01:30:04;;;;;;;16.30;13.18;;;;;;;13.86;90.06;99860.94;5050871;28;20111;-76
2024/02/15 01:32:31;;;;;;;13.88;12.48;;;;;;;13.87;90.03;99856.50;5032751;28;20048;-75
2024/02/15 01:34:57;;;;;;;15.60;12.85;;;;;;;13.85;89.95;99864.53;5050531;28;20131;-74
2024/02/15 01:37:24;;;;;;;15.10;13.27;;;;;;;13.86;90.10;99868.88;5050498;28;20052;-75
2024/02/15 01:39:51;;;;;;;13.93;12.45;;;;;;;13.86;89.96;99862.75;5032830;28;20133;-79
2024/02/15 01:42:18;;;;;;;16.80;12.93;;;;;;;13.86;90.10;99862.75;5050452;28;20145;-75
2024/02/15 01:44:47;;;;;;;14.95;12.90;;;;;;;13.85;90.09;99868.97;5032952;28;20502;-78
2024/02/15 01:47:15;;;;;;;14.38;12.60;;;;;;;13.84;90.17;99862.00;5050366;28;20057;-75
2024/02/15 01:49:42;;;;;;;13.68;12.18;;;;;;;13.84;90.13;99868.16;5050403;28;20048;-75
2024/02/15 01:52:09;;;;;;;12.80;11.50;;;;;;;13.84;90.21;99864.66;5050708;28;20098;-76
2024/02/15 01:54:38;;;;;;;12.38;11.10;;;;;;;13.83;90.23;99866.44;5050593;28;20497;-77
2024/02/15 01:57:05;;;;;;;13.93;12.10;;;;;;;13.83;90.24;99861.13;5050246;28;20551;-74
2024/02/15 01:59:32;;;;;;;12.95;10.77;;;;;;;13.85;90.09;99863.69;5032785;28;20045;-75
2024/02/15 02:02:02;;;;;;;10.60;9.50;;;;;;;13.84;89.88;99865.50;5032900;28;20564;-75
2024/02/15 02:04:28;;;;;;;9.98;8.95;;;;;;;13.84;90.16;99864.66;5032925;28;20063;-75
2024/02/15 02:06:58;;;;;;;11.32;9.73;;;;;;;13.82;90.18;99859.47;5050456;28;20060;-75
2024/02/15 02:09:25;;;;;;;12.07;10.80;;;;;;;13.82;90.33;99864.75;5050557;28;20135;-75
2024/02/15 02:11:52;;;;;;;12.32;10.90;;;;;;;13.81;90.16;99861.28;5050461;28;20053;-75
2024/02/15 02:14:20;;;;;;;12.68;11.38;;;;;;;13.81;90.36;99855.13;5050280;28;20044;-74
2024/02/15 02:16:47;;;;;;;12.50;11.18;;;;;;;13.79;90.19;99857.00;5050453;28;20132;-74
2024/02/15 02:19:13;;;;;;;14.23;11.25;;;;;;;13.79;90.34;99857.00;5032942;28;20095;-75
2024/02/15 02:21:40;;;;;;;10.95;9.85;;;;;;;13.79;90.36;99852.56;5050368;28;20049;-74
2024/02/15 02:24:13;;;;;;;11.45;10.27;;;;;;;13.76;90.24;99849.31;5050333;28;20049;-74
2024/02/15 02:26:40;;;;;;;12.57;9.25;;;;;;;13.79;90.49;99855.22;5049862;28;20048;-73
2024/02/15 02:29:07;;;;;;;10.43;9.38;;;;;;;13.76;90.44;99859.88;5050552;28;20114;-74
2024/02/15 02:31:35;;;;;;;10.80;9.32;;;;;;;13.76;90.52;99849.31;5050595;28;20053;-73
2024/02/15 02:34:03;;;;;;;10.73;9.63;;;;;;;13.74;90.54;99844.13;5050307;28;20053;-73
2024/02/15 02:36:30;;;;;;;11.38;10.18;;;;;;;13.76;90.60;99849.31;5050027;28;20114;-74
2024/02/15 02:39:00;;;;;;;11.80;9.90;;;;;;;13.74;90.61;99849.41;5050031;28;20147;-75
2024/02/15 02:41:28;;;;;;;12.60;10.93;;;;;;;13.75;90.67;99850.28;5050101;28;20049;-75
2024/02/15 02:43:58;;;;;;;12.63;10.13;;;;;;;13.73;90.58;99850.38;5050529;28;20064;-74
2024/02/15 02:46:25;;;;;;;13.40;11.93;;;;;;;13.73;90.78;99855.66;5050452;28;20056;-74
2024/02/15 02:48:52;;;;;;;15.73;12.55;;;;;;;13.73;90.65;99844.22;5054197;28;20045;-74
2024/02/15 02:51:19;;;;;;;14.20;12.20;;;;;;;13.74;90.78;99844.13;5054598;28;20144;-74
2024/02/15 02:53:46;;;;;;;16.17;12.75;;;;;;;13.74;90.69;99851.19;5053989;28;20082;-75
2024/02/15 02:56:13;;;;;;;19.15;13.75;;;;;;;13.72;90.97;99845.19;5053851;28;20056;-73
2024/02/15 02:58:42;;;;;;;16.52;14.15;;;;;;;13.74;90.86;99843.25;5053947;28;20057;-82
2024/02/15 03:01:13;;;;;;;16.52;14.32;;;;;;;13.74;90.82;99848.56;5053955;28;20683;-76
2024/02/15 03:03:39;;;;;;;17.33;13.10;;;;;;;13.75;91.04;99843.16;5053854;28;20111;-76
2024/02/15 03:06:06;;;;;;;21.20;14.73;;;;;;;13.77;91.04;99845.69;5052211;28;20056;-74
2024/02/15 03:08:33;;;;;;;15.63;14.02;;;;;;;13.76;90.91;99842.19;5053629;28;20045;-73
2024/02/15 03:11:01;;;;;;;20.08;15.63;;;;;;;13.75;90.72;99843.16;5036145;28;20129;-76
2024/02/15 03:13:27;;;;;;;21.60;15.18;;;;;;;13.77;90.80;99841.28;5053673;28;20041;-74
2024/02/15 03:15:54;;;;;;;17.55;15.75;;;;;;;13.77;90.70;99835.97;5053625;28;20053;-73
2024/02/15 03:18:20;;;;;;;21.48;15.80;;;;;;;13.78;90.58;99852.69;5053325;28;20571;-74
2024/02/15 03:20:48;;;;;;;19.25;15.02;;;;;;;13.77;90.86;99846.56;5053569;28;20107;-74
2024/02/15 03:23:15;;;;;;;21.63;15.70;;;;;;;13.77;90.57;99851.84;5035747;28;20056;-75
2024/02/15 03:25:41;;;;;;;18.42;16.02;;;;;;;13.78;90.63;99845.59;5053504;28;20053;-76
2024/02/15 03:28:08;;;;;;;20.65;16.88;;;;;;;13.78;90.66;99853.53;5053300;28;20103;-74
2024/02/15 03:30:34;;;;;;;23.00;17.67;;;;;;;13.78;90.59;99847.38;5053337;28;20070;-74
2024/02/15 03:33:05;;;;;;;26.88;19.10;;;;;;;13.78;90.58;99852.69;5053248;28;20060;-76
2024/02/15 03:35:32;;;;;;;23.10;17.25;;;;;;;13.79;90.62;99849.06;5053052;28;20549;-73
2024/02/15 03:38:00;;;;;;;21.15;17.48;;;;;;;13.79;90.60;99841.13;5053000;28;20044;-75
2024/02/15 03:40:27;;;;;;;23.50;19.00;;;;;;;13.80;90.68;99845.50;5053378;28;20103;-74
2024/02/15 03:42:54;;;;;;;21.27;18.25;;;;;;;13.80;90.58;99851.63;5053091;28;20105;-73
2024/02/15 03:45:24;;;;;;;22.08;18.25;;;;;;;13.80;90.58;99845.50;5052886;28;20116;-74
2024/02/15 03:47:52;;;;;;;21.65;18.95;;;;;;;13.80;90.54;99841.03;5052843;28;20183;-73
2024/02/15 03:50:21;;;;;;;22.98;18.65;;;;;;;13.80;90.62;99848.97;5053434;28;20044;-74
2024/02/15 03:52:49;;;;;;;23.65;19.55;;;;;;;13.81;90.60;99845.41;5053055;28;20044;-74
2024/02/15 03:55:16;;;;;;;26.52;19.15;;;;;;;13.81;90.52;99842.75;5052740;28;20064;-74
2024/02/15 03:57:46;;;;;;;26.17;19.05;;;;;;;13.80;90.51;99833.09;5052096;28;20524;-79
2024/02/15 04:00:14;;;;;;;26.48;19.67;;;;;;;13.81;90.56;99841.91;5052782;28;20052;-76
2024/02/15 04:02:41;;;;;;;21.08;18.77;;;;;;;13.83;90.56;99855.03;5052529;28;20048;-75
2024/02/15 04:05:11;;;;;;;28.20;20.85;;;;;;;13.83;90.66;99847.09;5035033;28;20192;-74
2024/02/15 04:07:38;;;;;;;29.13;21.10;;;;;;;13.83;90.45;99850.56;5034652;28;20048;-74
2024/02/15 04:10:06;;;;;;;27.50;21.27;;;;;;;13.82;90.52;99854.16;5035005;28;20076;-74
2024/02/15 04:12:33;;;;;;;25.77;20.55;;;;;;;13.83;90.54;99849.72;5052511;28;20049;-74
2024/02/15 04:15:11;;;;;;;32.90;21.73;;;;;;;13.81;90.35;99848.03;5052201;28;20056;-75
2024/02/15 04:17:39;;;;;;;29.20;22.45;;;;;;;13.83;90.44;99855.03;5052466;28;20053;-75
2024/02/15 04:20:06;;;;;;;28.23;22.23;;;;;;;13.82;90.62;99848.88;5052838;28;20049;-74
2024/02/15 04:22:38;;;;;;;31.48;21.45;;;;;;;13.84;90.20;99854.06;5052142;28;20071;-75
2024/02/15 04:25:06;;;;;;;26.77;21.48;;;;;;;13.82;90.58;99851.50;5052364;28;20057;-75
2024/02/15 04:27:33;;;;;;;25.30;20.85;;;;;;;13.84;90.37;99854.91;5052037;28;20061;-75
2024/02/15 04:30:02;;;;;;;27.85;21.55;;;;;;;13.84;90.36;99857.56;5052438;28;20532;-74
2024/02/15 04:32:33;;;;;;;24.33;21.30;;;;;;;13.84;90.24;99862.84;5052240;28;20051;-75
2024/02/15 04:35:01;;;;;;;34.55;23.25;;;;;;;13.83;90.32;99850.56;5052339;28;20108;-76
2024/02/15 04:37:31;;;;;;;27.58;22.45;;;;;;;13.82;90.34;99854.16;5034339;28;20560;-74
2024/02/15 04:40:06;;;;;;;32.95;23.42;;;;;;;13.83;90.55;99857.66;5051945;28;20140;-73
2024/02/15 04:42:34;;;;;;;34.95;23.42;;;;;;;13.83;90.41;99850.56;5052341;28;20123;-75
2024/02/15 04:45:01;;;;;;;33.35;23.73;;;;;;;13.81;90.59;99849.84;5051976;28;20088;-75
2024/02/15 04:47:29;;;;;;;29.48;23.30;;;;;;;13.80;90.49;99850.78;5051614;28;20135;-76
2024/02/15 04:49:56;;;;;;;31.48;22.17;;;;;;;13.81;90.56;99841.91;5051868;28;20084;-74
2024/02/15 04:52:23;;;;;;;29.55;21.95;;;;;;;13.80;90.62;99845.50;5051678;28;20044;-74
2024/02/15 04:54:50;;;;;;;28.40;22.77;;;;;;;13.80;90.63;99843.69;5034228;28;20138;-76
2024/02/15 04:57:17;;;;;;;28.98;21.20;;;;;;;13.81;90.68;99844.53;5051519;28;20074;-74
2024/02/15 04:59:47;;;;;;;28.45;21.92;;;;;;;13.80;90.56;99848.16;5051801;28;20159;-74
2024/02/15 05:02:14;;;;;;;27.17;21.08;;;;;;;13.81;90.43;99841.91;5051688;28;20095;-73
2024/02/15 05:04:42;;;;;;;28.48;21.23;;;;;;;13.81;90.70;99841.91;5051338;28;20107;-75
2024/02/15 05:07:10;;;;;;;29.88;21.52;;;;;;;13.80;90.40;99835.75;5050995;28;20057;-77
2024/02/15 05:09:37;;;;;;;31.30;20.23;;;;;;;13.81;90.48;99833.97;5033220;28;20492;-74
2024/02/15 05:12:05;;;;;;;29.52;20.60;;;;;;;13.79;90.39;99828.75;5051761;28;20049;-75
2024/02/15 05:14:32;;;;;;;30.33;20.60;;;;;;;13.80;90.41;99832.28;5051472;28;20618;-76
2024/02/15 05:16:59;;;;;;;31.45;20.10;;;;;;;13.80;90.50;99830.44;5051285;28;20056;-75
2024/02/15 05:19:27;;;;;;;32.85;22.10;;;;;;;13.78;90.63;99824.44;5051424;28;20071;-75
2024/02/15 05:21:54;;;;;;;34.72;22.60;;;;;;;13.79;90.41;99827.91;5033544;28;20485;-79
2024/02/15 05:24:22;;;;;;;36.33;23.50;;;;;;;13.79;90.37;99827.91;5051171;28;20402;-74
2024/02/15 05:26:48;;;;;;;36.28;26.55;;;;;;;13.78;90.30;99842.97;5050910;28;20041;-75
2024/02/15 05:29:16;;;;;;;34.92;25.67;;;;;;;13.78;90.74;99824.44;5051000;28;20048;-75
2024/02/15 05:31:43;;;;;;;41.10;28.08;;;;;;;13.79;90.45;99822.63;5051205;28;20048;-76
2024/02/15 05:34:13;;;;;;;42.22;31.40;;;;;;;13.78;90.19;99826.22;5050927;28;20049;-75
2024/02/15 05:36:40;;;;;;;49.85;32.22;;;;;;;13.78;90.16;99832.38;5050937;28;20053;-73
2024/02/15 05:39:08;;;;;;;47.45;34.38;;;;;;;13.78;90.42;99826.22;5033249;28;20090;-77
2024/02/15 05:41:34;;;;;;;53.58;33.95;;;;;;;13.78;90.44;99815.63;5050886;28;20056;-74
2024/02/15 05:44:04;;;;;;;53.70;35.80;;;;;;;13.77;90.17;99813.97;5051019;28;20158;-75
2024/02/15 05:46:31;;;;;;;49.90;36.70;;;;;;;13.77;90.32;99806.88;5050711;28;20067;-73
2024/02/15 05:48:59;;;;;;;56.90;38.40;;;;;;;13.76;90.31;99796.41;5017028;28;20060;-74
2024/02/15 05:51:26;;;;;;;53.53;39.47;;;;;;;13.73;90.21;99793.97;5050780;28;20395;-75
2024/02/15 05:53:58;;;;;;;54.55;37.35;;;;;;;13.74;90.23;99799.16;5050572;28;20490;-75
2024/02/15 05:56:25;;;;;;;52.17;37.40;;;;;;;13.73;90.38;99791.31;5050804;28;20055;-74
2024/02/15 05:58:52;;;;;;;53.03;36.78;;;;;;;13.74;90.12;99803.56;5050710;28;20057;-74
2024/02/15 06:01:19;;;;;;;60.70;38.55;;;;;;;13.72;90.20;99800.22;5050205;28;20107;-75
2024/02/15 06:03:47;;;;;;;56.08;36.65;;;;;;;13.72;90.40;99801.03;5050414;28;20506;-74
2024/02/15 06:06:14;;;;;;;59.97;37.88;;;;;;;13.71;90.44;99802.00;5050247;28;20063;-76
2024/02/15 06:08:41;;;;;;;52.17;36.53;;;;;;;13.72;90.40;99802.84;5046943;28;20042;-75
2024/02/15 06:11:10;;;;;;;53.58;36.10;;;;;;;13.70;90.43;99808.25;5031457;28;20053;-74
2024/02/15 06:13:37;;;;;;;57.47;38.17;;;;;;;13.71;90.31;99798.53;5030313;28;20111;-76
2024/02/15 06:16:09;;;;;;;60.50;37.72;;;;;;;13.71;90.30;99790.59;5030003;28;20097;-75
2024/02/15 06:18:35;;;;;;;54.63;36.40;;;;;;;13.71;89.93;99782.66;5030624;28;20057;-76
2024/02/15 06:21:02;;;;;;;45.92;33.40;;;;;;;13.70;90.27;99781.78;5032329;28;20053;-74
2024/02/15 06:23:29;;;;;;;48.05;35.13;;;;;;;13.68;90.08;99773.97;5034713;28;20056;-76
2024/02/15 06:25:57;;;;;;;48.58;33.20;;;;;;;13.68;90.29;99759.88;5034334;28;20529;-76
2024/02/15 06:39:41;;;;;;;39.15;27.45;;;;;;;13.63;90.21;99765.50;5036552;28;20096;-73
2024/02/15 06:42:11;;;;;;;45.95;26.50;;;;;;;13.63;90.36;99769.94;5036834;28;20052;-74
2024/02/15 06:44:40;;;;;;;41.40;26.17;;;;;;;13.63;90.32;99775.22;5325972;23;20048;-84
2024/02/15 06:47:10;;;;;;;35.85;24.63;;;;;;;13.63;90.48;99777.88;5052973;28;20135;-83
2024/02/15 06:49:41;;;;;;;38.00;24.90;;;;;;;13.62;90.53;99784.13;5053357;28;20047;-84
2024/02/15 06:52:08;;;;;;;35.67;24.48;;;;;;;13.63;90.62;99786.66;5054685;28;20045;-84
2024/02/15 06:54:35;;;;;;;33.03;23.33;;;;;;;13.63;90.53;99784.03;5054569;28;20040;-81
2024/02/15 06:57:04;;;;;;;37.42;24.13;;;;;;;13.63;90.49;99789.31;5053888;28;20056;-83
2024/02/15 06:59:31;;;;;;;34.17;22.00;;;;;;;13.63;90.41;99791.97;5036621;28;20056;-83
2024/02/15 07:01:59;;;;;;;32.30;22.55;;;;;;;13.64;90.63;99801.56;5054461;28;20158;-81
2024/02/15 07:04:25;;;;;;;36.70;20.33;;;;;;;13.65;90.59;99799.78;5054019;28;20045;-82
2024/02/15 07:06:54;;;;;;;26.83;20.13;;;;;;;13.65;90.38;99797.97;5053507;28;20048;-81
2024/02/15 07:09:24;;;;;;;34.38;21.08;;;;;;;13.66;90.72;99797.03;5036043;28;20485;-83
2024/02/15 07:11:53;;;;;;;29.60;20.25;;;;;;;13.66;90.11;99806.75;5053717;28;20179;-82
2024/02/15 07:14:20;;;;;;;28.55;19.63;;;;;;;13.67;90.39;99804.03;5053593;28;20048;-83
2024/02/15 07:16:49;;;;;;;35.53;21.15;;;;;;;13.66;90.23;99801.47;5053769;28;20110;-83
2024/02/15 07:19:16;;;;;;;24.88;17.35;;;;;;;13.65;90.23;99794.50;5053559;28;20417;-84
2024/02/15 07:21:44;;;;;;;28.58;16.60;;;;;;;13.66;90.43;99785.59;5035664;28;20079;-84
2024/02/15 07:24:10;;;;;;;25.20;16.05;;;;;;;13.65;90.62;99776.81;5052862;28;20130;-82
2024/02/15 07:26:37;;;;;;;30.15;15.55;;;;;;;13.66;90.55;99775.03;5052660;28;20089;-80
2024/02/15 07:29:07;;;;;;;22.30;14.45;;;;;;;13.67;90.53;99774.91;5053658;28;20060;-82
2024/02/15 07:31:34;;;;;;;24.02;14.10;;;;;;;13.70;90.60;99775.66;5053395;28;20131;-82
2024/02/15 07:34:03;;;;;;;26.90;15.23;;;;;;;13.70;90.48;99765.06;5035142;28;20461;-81
2024/02/15 07:36:30;;;;;;;21.23;14.45;;;;;;;13.72;90.52;99760.53;5053030;28;20087;-79
2024/02/15 07:39:00;;;;;;;21.35;14.35;;;;;;;13.73;90.49;99767.50;5035621;28;20490;-82
2024/02/15 07:41:28;;;;;;;22.27;14.38;;;;;;;13.74;90.39;99764.75;5035762;28;20088;-82
2024/02/15 07:43:55;;;;;;;24.10;12.82;;;;;;;13.74;90.33;99761.25;5035589;28;20132;-82
2024/02/15 07:46:22;;;;;;;20.23;12.65;;;;;;;13.75;90.33;99765.63;5052858;28;20110;-82
2024/02/15 07:48:49;;;;;;;20.95;12.55;;;;;;;13.76;90.38;99762.00;5053238;28;20065;-81
2024/02/15 07:51:18;;;;;;;22.58;13.55;;;;;;;13.77;90.01;99768.97;5035260;28;20048;-81
2024/02/15 07:53:45;;;;;;;22.80;14.25;;;;;;;13.76;90.09;99770.78;5052649;28;20126;-79
2024/02/15 07:56:13;;;;;;;17.63;12.25;;;;;;;13.76;89.83;99764.66;5052711;28;20057;-79
2024/02/15 07:58:47;;;;;;;18.90;13.32;;;;;;;13.74;89.58;99771.84;5053019;28;20081;-80
2024/02/15 08:01:22;;;;;;;19.40;12.57;;;;;;;13.76;89.82;99764.66;5052722;28;20152;-80
2024/02/15 08:03:52;;;;;;;24.52;12.90;;;;;;;13.76;89.78;99762.84;5035278;28;20049;-79
2024/02/15 08:06:23;;;;;;;18.67;12.07;;;;;;;13.76;89.51;99744.31;5052217;28;20041;-80
2024/02/15 08:08:52;;;;;;;24.52;12.48;;;;;;;13.75;89.60;99742.63;5052929;28;20802;-80
2024/02/15 08:11:19;;;;;;;17.17;12.48;;;;;;;13.74;89.63;99745.38;5052695;28;20501;-79
2024/02/15 08:13:54;;;;;;;19.33;12.82;;;;;;;13.73;89.68;99756.94;5052557;28;20445;-78
2024/02/15 08:16:22;;;;;;;17.63;11.95;;;;;;;13.70;89.61;99763.28;5034693;28;20187;-80
2024/02/15 08:18:54;;;;;;;15.57;11.13;;;;;;;13.71;89.76;99770.25;5052008;28;20056;-80
2024/02/15 08:21:29;;;;;;;22.50;12.10;;;;;;;13.68;89.40;99762.53;5052089;28;20055;-81
2024/02/15 08:23:56;;;;;;;20.92;12.10;;;;;;;13.70;89.90;99773.00;5052168;28;20513;-81
2024/02/15 08:26:22;;;;;;;19.15;12.02;;;;;;;13.68;90.09;99771.31;5052057;28;20060;-83
2024/02/15 08:28:49;;;;;;;19.58;12.25;;;;;;;13.67;90.05;99756.41;5052361;28;20049;-81
2024/02/15 08:31:16;;;;;;;17.38;11.63;;;;;;;13.65;89.92;99757.47;5052191;28;20565;-81
2024/02/15 08:33:45;;;;;;;15.45;11.15;;;;;;;13.63;90.02;99751.44;5052465;28;20048;-81
2024/02/15 08:36:15;;;;;;;14.73;10.43;;;;;;;13.64;90.33;99740.75;5051940;28;20486;-80
2024/02/15 08:38:43;;;;;;;18.77;10.70;;;;;;;13.62;90.29;99739.16;5052311;28;20041;-80
2024/02/15 08:41:12;;;;;;;15.70;9.73;;;;;;;13.61;90.43;99738.31;5052144;28;20059;-83
2024/02/15 08:43:41;;;;;;;23.98;9.85;;;;;;;13.61;90.53;99742.78;5033190;28;20510;-82
2024/02/15 08:46:08;;;;;;;17.67;9.80;;;;;;;13.63;90.47;99738.19;5051917;28;20049;-79
2024/02/15 08:48:34;;;;;;;12.43;7.93;;;;;;;13.64;90.99;99746.03;5034289;28;20099;-82
2024/02/15 08:51:02;;;;;;;14.70;8.50;;;;;;;13.64;90.86;99751.31;5051863;28;20055;-82
2024/02/15 08:53:29;;;;;;;19.63;8.50;;;;;;;13.64;91.22;99739.91;5034316;28;20448;-82
2024/02/15 08:55:56;;;;;;;12.43;7.82;;;;;;;13.65;91.44;99741.59;5051730;28;20091;-83
2024/02/15 08:58:22;;;;;;;16.67;8.15;;;;;;;13.65;91.18;99744.25;5033673;28;20053;-84
2024/02/15 09:00:49;;;;;;;16.27;7.25;;;;;;;13.69;91.28;99748.38;5034212;28;20476;-82
2024/02/15 09:03:16;;;;;;;12.57;7.35;;;;;;;13.71;91.11;99745.63;5051735;28;20114;-80
2024/02/15 09:05:42;;;;;;;14.02;6.47;;;;;;;13.71;90.92;99764.13;5051625;28;20511;-82
2024/02/15 09:08:09;;;;;;;14.30;7.22;;;;;;;13.71;90.88;99754.38;5033451;28;20144;-83
2024/02/15 09:10:36;;;;;;;12.00;6.35;;;;;;;13.72;90.83;99765.81;5033808;28;20041;-81
2024/02/15 09:13:03;;;;;;;10.40;5.85;;;;;;;13.73;90.58;99772.78;5051280;28;20084;-81
2024/02/15 09:15:30;;;;;;;14.55;6.18;;;;;;;13.72;90.60;99757.88;5051553;28;20051;-83
2024/02/15 09:17:57;;;;;;;14.98;6.18;;;;;;;13.72;90.65;99749.94;5051116;28;20284;-82
2024/02/15 09:20:28;;;;;;;11.52;5.60;;;;;;;13.72;90.50;99763.19;5051503;28;20098;-82
2024/02/15 09:22:56;;;;;;;11.10;5.97;;;;;;;13.72;90.49;99763.19;5051302;28;20068;-82
2024/02/15 09:25:23;;;;;;;13.88;5.63;;;;;;;13.71;90.34;99761.50;5050951;28;20482;-80
2024/02/15 09:27:51;;;;;;;11.75;5.85;;;;;;;13.70;90.65;99765.91;5050940;28;20067;-80
2024/02/15 09:30:17;;;;;;;9.48;5.85;;;;;;;13.67;90.52;99767.00;5051059;28;20588;-79
2024/02/15 09:32:45;;;;;;;15.77;6.20;;;;;;;13.67;90.61;99764.34;5051081;28;20053;-79
2024/02/15 09:35:13;;;;;;;10.13;5.50;;;;;;;13.67;90.50;99772.28;5051109;28;20088;-80
2024/02/15 09:37:52;;;;;;;10.77;5.50;;;;;;;13.61;90.21;99770.03;5050761;28;20370;-82
2024/02/15 09:40:19;;;;;;;12.93;5.45;;;;;;;13.65;90.42;99774.16;5033284;28;20124;-81
2024/02/15 09:42:47;;;;;;;8.40;4.90;;;;;;;13.62;90.46;99761.19;5051173;28;20049;-81
2024/02/15 09:45:18;;;;;;;10.55;5.13;;;;;;;13.59;90.53;99758.75;5050787;28;20052;-81
2024/02/15 09:47:45;;;;;;;8.60;5.28;;;;;;;13.58;90.58;99732.41;5050915;28;20084;-81
2024/02/15 09:50:14;;;;;;;9.50;5.90;;;;;;;13.57;90.50;99734.19;5050717;28;20053;-83
2024/02/15 09:52:44;;;;;;;11.48;5.82;;;;;;;13.53;90.45;99730.91;5033254;28;20442;-81
2024/02/15 09:55:13;;;;;;;13.60;5.50;;;;;;;13.54;90.75;99755.56;5033065;28;20041;-82
2024/02/15 09:57:44;;;;;;;11.38;5.18;;;;;;;13.50;90.69;99732.94;5050420;28;20087;-83
2024/02/15 10:00:15;;;;;;;12.77;5.85;;;;;;;13.47;90.81;99730.47;5033119;28;20066;-83
2024/02/15 10:02:44;;;;;;;11.35;6.38;;;;;;;13.43;91.06;99706.06;5033080;28;20666;-82
2024/02/15 10:05:12;;;;;;;12.32;6.00;;;;;;;13.41;91.29;99723.81;5050916;28;20132;-80
2024/02/15 10:07:46;;;;;;;8.60;5.60;;;;;;;13.41;91.51;99716.72;5032690;28;20405;-82
2024/02/15 10:10:25;;;;;;;12.73;5.95;;;;;;;13.37;91.23;99723.19;5050809;28;20045;-83
2024/02/15 10:12:55;;;;;;;10.00;5.88;;;;;;;13.39;91.49;99729.19;5032956;28;20140;-82
2024/02/15 10:15:36;;;;;;;10.85;5.95;;;;;;;13.37;91.52;99727.63;5050771;28;20049;-82
2024/02/15 10:18:10;;;;;;;9.40;5.85;;;;;;;13.39;91.75;99728.38;5050512;28;20389;-83
2024/02/15 10:20:38;;;;;;;8.38;5.60;;;;;;;13.41;91.72;99745.81;5033048;28;20561;-83
2024/02/15 10:23:11;;;;;;;10.23;5.97;;;;;;;13.39;91.76;99736.31;5050798;28;20049;-80
2024/02/15 10:25:40;;;;;;;10.40;5.93;;;;;;;13.41;92.26;99729.94;5050437;28;20151;-82
2024/02/15 10:28:08;;;;;;;10.60;5.88;;;;;;;13.41;92.23;99737.03;5050173;28;20045;-82
2024/02/15 10:30:39;;;;;;;13.52;5.55;;;;;;;13.41;91.96;99721.16;5050437;28;20448;-81
2024/02/15 10:33:09;;;;;;;12.98;6.63;;;;;;;13.41;92.25;99729.94;5050708;28;20139;-82
2024/02/15 10:35:36;;;;;;;8.93;5.65;;;;;;;13.43;92.29;99721.91;5050321;28;20045;-81
2024/02/15 10:38:07;;;;;;;10.40;6.18;;;;;;;13.39;91.96;99707.22;5050120;28;20410;-82
2024/02/15 10:40:35;;;;;;;8.65;6.35;;;;;;;13.43;92.06;99712.16;5032542;28;20524;-80
2024/02/15 10:43:08;;;;;;;11.80;6.03;;;;;;;13.42;92.18;99710.47;5050531;28;20056;-82
2024/02/15 10:45:39;;;;;;;8.68;5.75;;;;;;;13.44;92.22;99702.44;5050247;28;20117;-81
2024/02/15 10:48:10;;;;;;;10.00;5.80;;;;;;;13.42;91.93;99718.41;5050142;28;20053;-82
2024/02/15 10:50:40;;;;;;;9.88;5.57;;;;;;;13.43;92.11;99704.22;5032808;28;20103;-80
2024/02/15 10:53:35;;;;;;;6.85;5.13;;;;;;;13.40;91.94;99711.53;5050256;28;20038;-82
2024/02/15 10:56:14;;;;;;;9.98;4.90;;;;;;;13.45;92.07;99729.75;5050484;28;20045;-80
2024/02/15 10:58:47;;;;;;;9.57;4.93;;;;;;;13.42;92.00;99734.28;5050317;28;20501;-81
2024/02/15 11:01:22;;;;;;;6.63;4.07;;;;;;;13.43;92.48;99743.91;5032380;28;20056;-81
2024/02/15 11:03:59;;;;;;;6.68;3.70;;;;;;;13.43;92.39;99729.84;5050642;28;20045;-82
2024/02/15 11:06:27;;;;;;;4.65;3.80;;;;;;;13.45;92.79;99735.84;5049963;28;20095;-82
2024/02/15 11:08:54;;;;;;;5.07;3.67;;;;;;;13.46;92.80;99740.19;5053271;28;20064;-83
2024/02/15 11:11:22;;;;;;;6.22;3.78;;;;;;;13.47;93.06;99715.47;5053834;28;20512;-82
2024/02/15 11:13:49;;;;;;;5.97;3.83;;;;;;;13.50;93.44;99733.75;5035953;28;20494;-80
2024/02/15 11:16:43;;;;;;;7.20;3.80;;;;;;;13.47;93.29;99736.63;5053518;28;20059;-81
2024/02/15 11:19:10;;;;;;;6.03;3.45;;;;;;;13.55;93.98;99731.66;5053855;28;20647;-84
2024/02/15 11:21:54;;;;;;;5.95;3.45;;;;;;;13.54;93.48;99721.19;5053644;28;20052;-84
2024/02/15 11:24:28;;;;;;;6.95;3.30;;;;;;;13.59;93.49;99716.41;5035894;28;20098;-82
2024/02/15 11:27:05;;;;;;;10.45;3.92;;;;;;;13.60;93.50;99712.81;5035750;28;20250;-80
2024/02/15 11:29:52;;;;;;;8.07;4.05;;;;;;;13.63;93.24;99720.53;5035883;28;20110;-82
2024/02/15 11:32:35;;;;;;;9.07;3.70;;;;;;;13.66;93.16;99708.91;5035716;28;20052;-82
2024/02/15 11:35:13;;;;;;;6.93;4.03;;;;;;;13.71;93.43;99700.66;5035913;28;20482;-83
2024/02/15 11:37:52;;;;;;;4.80;3.38;;;;;;;13.73;93.24;99693.44;5035598;28;20053;-79